| time (UTC) | temp C | wind direction | speed KPH | gust KPH | rain 1hr cm | rain 24hr cm | rain mn cm | humidity % | barometer mb |
| 20260902080009 | 19 | 226 | 4.8 | 11.3 | 0.00 | 0.00 | 0.00 | 1 | 1019.1 |
| 20260902075420 | 19 | 271 | 4.8 | 12.9 | 0.00 | 0.00 | 0.00 | 1 | 1019.0 |
| 20260902074414 | 18 | 252 | 3.2 | 11.3 | 0.00 | 0.00 | 0.00 | 1 | 1019.1 |
| 20260902073415 | 18 | 221 | 3.2 | 11.3 | 0.00 | 0.00 | 0.00 | 1 | 1018.9 |
| 20260902072421 | 18 | 247 | 4.8 | 11.3 | 0.00 | 0.00 | 0.00 | 1 | 1019.1 |
| 20260902071424 | 18 | 244 | 3.2 | 11.3 | 0.00 | 0.00 | 0.00 | 1 | 1018.9 |
| 20260902070401 | 18 | 186 | 4.8 | 17.7 | 0.00 | 0.00 | 0.00 | 1 | 1018.8 |
| 20260902063058 | 17 | 257 | 1.6 | 9.7 | 0.00 | 0.00 | 0.00 | 1 | 1018.6 |
| 20260902062110 | 17 | 230 | 3.2 | 8.0 | 0.00 | 0.00 | 0.00 | 1 | 1018.6 |
| 20260902061053 | 16 | 222 | 1.6 | 6.4 | 0.00 | 0.00 | 0.00 | 1 | 1018.5 |
| 20260902054918 | 16 | 217 | 1.6 | 8.0 | 0.00 | 0.00 | 0.00 | 1 | 1018.6 |
| 20260902052714 | 16 | 222 | 3.2 | 8.0 | 0.00 | 0.00 | 0.00 | 1 | 1018.6 |
| 20260902051646 | 16 | 229 | 1.6 | 9.7 | 0.00 | 0.00 | 0.00 | 1 | 1018.5 |
| 20260902050626 | 17 | 242 | 3.2 | 14.5 | 0.00 | 0.00 | 0.00 | 1 | 1018.5 |
| 20260902045607 | 17 | 248 | 4.8 | 14.5 | 0.00 | 0.00 | 0.00 | 1 | 1018.6 |
| 20260902044629 | 17 | 249 | 3.2 | 9.7 | 0.00 | 0.00 | 0.00 | 1 | 1018.4 |
| 20260902043556 | 17 | 243 | 4.8 | 12.9 | 0.00 | 0.00 | 0.00 | 1 | 1018.5 |
| 20260902042532 | 17 | 227 | 4.8 | 12.9 | 0.00 | 0.00 | 0.00 | 1 | 1018.6 |
| 20260902041531 | 17 | 215 | 4.8 | 12.9 | 0.00 | 0.00 | 0.00 | 1 | 1018.5 |
| 20260902040457 | 17 | 247 | 6.4 | 14.5 | 0.00 | 0.00 | 0.00 | 1 | 1018.7 |
| 20260902035457 | 17 | 240 | 4.8 | 14.5 | 0.00 | 0.00 | 0.00 | 1 | 1018.7 |
| 20260902034509 | 17 | 255 | 4.8 | 16.1 | 0.00 | 0.00 | 0.00 | 1 | 1018.7 |
| 20260902033444 | 17 | 256 | 4.8 | 16.1 | 0.00 | 0.00 | 0.00 | 1 | 1018.7 |
| 20260902032447 | 17 | 248 | 4.8 | 11.3 | 0.00 | 0.00 | 0.00 | 1 | 1018.5 |
| 20260902031428 | 17 | 253 | 4.8 | 11.3 | 0.00 | 0.00 | 0.00 | 1 | 1018.5 |
| 20260902030433 | 17 | 252 | 4.8 | 11.3 | 0.00 | 0.00 | 0.00 | 1 | 1018.4 |
| 20260902025422 | 17 | 246 | 4.8 | 11.3 | 0.00 | 0.00 | 0.00 | 1 | 1018.4 |
| 20260902024410 | 17 | 221 | 3.2 | 9.7 | 0.00 | 0.00 | 0.00 | 1 | 1018.5 |
| 20260902023357 | 17 | 226 | 3.2 | 9.7 | 0.00 | 0.00 | 0.00 | 1 | 1018.4 |
| 20260902022405 | 17 | 233 | 3.2 | 9.7 | 0.00 | 0.00 | 0.00 | 1 | 1018.5 |
| 20260902021414 | 17 | 252 | 4.8 | 12.9 | 0.00 | 0.00 | 0.00 | 1 | 1018.7 |
| 20260902020430 | 17 | 244 | 4.8 | 12.9 | 0.00 | 0.00 | 0.00 | 1 | 1018.8 |
| 20260902015434 | 17 | 245 | 4.8 | 12.9 | 0.00 | 0.00 | 0.00 | 1 | 1018.7 |
| 20260902014441 | 17 | 246 | 4.8 | 12.9 | 0.00 | 0.00 | 0.00 | 1 | 1018.8 |
| 20260902013428 | 17 | 248 | 4.8 | 11.3 | 0.00 | 0.00 | 0.00 | 1 | 1018.8 |
| 20260902012412 | 17 | 244 | 4.8 | 11.3 | 0.00 | 0.00 | 0.00 | 1 | 1018.9 |
| 20260902011418 | 17 | 247 | 4.8 | 11.3 | 0.00 | 0.00 | 0.00 | 1 | 1018.8 |
| 20260902010405 | 17 | 234 | 3.2 | 11.3 | 0.00 | 0.00 | 0.00 | 1 | 1018.8 |
| 20260902004238 | 17 | 253 | 4.8 | 11.3 | 0.00 | 0.00 | 0.00 | 1 | 1019.0 |
| 20260902002114 | 17 | 249 | 4.8 | 11.3 | 0.00 | 0.00 | 0.00 | 1 | 1019.0 |
| 20260902001046 | 17 | 254 | 4.8 | 11.3 | 0.00 | 0.00 | 0.00 | 1 | 1019.1 |
| 20260902000058 | 17 | 246 | 4.8 | 11.3 | 0.00 | 0.00 | 0.00 | 1 | 1019.0 |
| 20260901235100 | 17 | 242 | 3.2 | 11.3 | 0.00 | 0.00 | 0.00 | 1 | 1018.9 |
| 20260901234114 | 17 | 247 | 3.2 | 11.3 | 0.00 | 0.00 | 0.00 | 1 | 1018.8 |
| 20260901232029 | 17 | 245 | 3.2 | 9.7 | 0.00 | 0.00 | 0.00 | 1 | 1018.9 |
| 20260901231029 | 17 | 244 | 3.2 | 9.7 | 0.00 | 0.00 | 0.00 | 1 | 1019.0 |
| 20260901230029 | 17 | 247 | 3.2 | 11.3 | 0.00 | 0.00 | 0.00 | 1 | 1019.0 |
| 20260901225008 | 18 | 247 | 3.2 | 11.3 | 0.00 | 0.00 | 0.00 | 1 | 1019.0 |
| 20260901222814 | 18 | 254 | 4.8 | 11.3 | 0.00 | 0.00 | 0.00 | 1 | 1019.3 |
| 20260901221839 | 18 | 240 | 4.8 | 11.3 | 0.00 | 0.00 | 0.00 | 1 | 1019.4 |
| 20260901220834 | 18 | 240 | 4.8 | 12.9 | 0.00 | 0.00 | 0.00 | 1 | 1019.1 |
| 20260901214715 | 18 | 259 | 6.4 | 14.5 | 0.00 | 0.00 | 0.00 | 1 | 1019.2 |
| 20260901213717 | 18 | 236 | 6.4 | 12.9 | 0.00 | 0.00 | 0.00 | 1 | 1019.1 |
| 20260901211535 | 18 | 238 | 4.8 | 14.5 | 0.00 | 0.00 | 0.00 | 1 | 1019.2 |
| 20260901210537 | 18 | 224 | 6.4 | 14.5 | 0.00 | 0.00 | 0.00 | 1 | 1019.2 |
| 20260901205535 | 18 | 242 | 6.4 | 14.5 | 0.00 | 0.00 | 0.00 | 1 | 1019.1 |
| 20260901204540 | 18 | 239 | 4.8 | 14.5 | 0.00 | 0.00 | 0.00 | 1 | 1019.0 |
| 20260901203514 | 18 | 233 | 6.4 | 12.9 | 0.00 | 0.00 | 0.00 | 1 | 1019.1 |
| 20260901202521 | 18 | 225 | 4.8 | 17.7 | 0.00 | 0.00 | 0.00 | 1 | 1019.1 |
| 20260901201527 | 18 | 232 | 6.4 | 17.7 | 0.00 | 0.00 | 0.00 | 1 | 1019.1 |
| 20260901200510 | 18 | 223 | 6.4 | 14.5 | 0.00 | 0.00 | 0.00 | 1 | 1019.1 |
| 20260901195517 | 18 | 195 | 8.0 | 19.3 | 0.00 | 0.00 | 0.00 | 1 | 1019.0 |
| 20260901194459 | 18 | 218 | 6.4 | 19.3 | 0.00 | 0.00 | 0.00 | 1 | 1019.0 |
| 20260901193511 | 18 | 175 | 6.4 | 17.7 | 0.00 | 0.00 | 0.00 | 1 | 1018.8 |
| 20260901192526 | 18 | 220 | 6.4 | 17.7 | 0.00 | 0.00 | 0.00 | 1 | 1018.8 |
| 20260901191523 | 18 | 223 | 6.4 | 16.1 | 0.00 | 0.00 | 0.00 | 1 | 1018.8 |
| 20260901190533 | 19 | 246 | 6.4 | 16.1 | 0.00 | 0.00 | 0.00 | 1 | 1019.0 |
| 20260901185526 | 19 | 219 | 6.4 | 16.1 | 0.00 | 0.00 | 0.00 | 1 | 1019.0 |
| 20260901184538 | 19 | 186 | 8.0 | 17.7 | 0.00 | 0.00 | 0.00 | 1 | 1018.8 |
| 20260901183543 | 20 | 221 | 8.0 | 17.7 | 0.00 | 0.00 | 0.00 | 1 | 1018.6 |
| 20260901182543 | 20 | 249 | 8.0 | 17.7 | 0.00 | 0.00 | 0.00 | 1 | 1018.6 |
| 20260901181518 | 20 | 205 | 8.0 | 17.7 | 0.00 | 0.00 | 0.00 | 1 | 1018.4 |
| 20260901180542 | 20 | 234 | 8.0 | 14.5 | 0.00 | 0.00 | 0.00 | 7 | 1018.4 |
| 20260901175558 | 21 | 206 | 6.4 | 19.3 | 0.00 | 0.00 | 0.00 | 14 | 1018.3 |
| 20260901174527 | 21 | 257 | 8.0 | 24.1 | 0.00 | 0.00 | 0.00 | 20 | 1018.3 |
| 20260901173501 | 21 | 241 | 6.4 | 24.1 | 0.00 | 0.00 | 0.00 | 27 | 1018.3 |
| 20260901172427 | 22 | 194 | 6.4 | 17.7 | 0.00 | 0.00 | 0.00 | 30 | 1018.3 |
| 20260901171448 | 22 | 225 | 6.4 | 16.1 | 0.00 | 0.00 | 0.00 | 35 | 1018.2 |
| 20260901165343 | 22 | 13 | 0.0 | 0.0 | 0.00 | 0.00 | 0.00 | 37 | 1018.3 |
| 20260901164340 | 22 | 302 | 3.2 | 11.3 | 0.00 | 0.00 | 0.00 | 41 | 1018.3 |
| 20260901163356 | 22 | 257 | 1.6 | 11.3 | 0.00 | 0.00 | 0.00 | 40 | 1018.4 |
| 20260901162404 | 22 | 300 | 0.0 | 9.7 | 0.00 | 0.00 | 0.00 | 40 | 1018.4 |
| 20260901161424 | 22 | 296 | 1.6 | 9.7 | 0.00 | 0.00 | 0.00 | 40 | 1018.5 |
| 20260901160424 | 22 | 275 | 3.2 | 16.1 | 0.00 | 0.00 | 0.00 | 40 | 1018.6 |
| 20260901155438 | 22 | 265 | 4.8 | 16.1 | 0.00 | 0.00 | 0.00 | 40 | 1018.7 |
| 20260901154436 | 22 | 252 | 4.8 | 12.9 | 0.00 | 0.00 | 0.00 | 40 | 1018.8 |
| 20260901153433 | 22 | 275 | 4.8 | 14.5 | 0.00 | 0.00 | 0.00 | 41 | 1018.8 |
| 20260901152456 | 22 | 307 | 4.8 | 14.5 | 0.00 | 0.00 | 0.00 | 41 | 1018.9 |
| 20260901151446 | 22 | 269 | 6.4 | 19.3 | 0.00 | 0.00 | 0.00 | 41 | 1018.7 |
| 20260901145339 | 23 | 264 | 4.8 | 16.1 | 0.00 | 0.00 | 0.00 | 40 | 1018.7 |
| 20260901144347 | 22 | 306 | 3.2 | 16.1 | 0.00 | 0.00 | 0.00 | 41 | 1018.7 |
| 20260901143354 | 22 | 284 | 6.4 | 16.1 | 0.00 | 0.00 | 0.00 | 41 | 1018.8 |
| 20260901142400 | 23 | 254 | 1.6 | 11.3 | 0.00 | 0.00 | 0.00 | 41 | 1018.8 |
| 20260901141407 | 23 | 346 | 0.0 | 4.8 | 0.00 | 0.00 | 0.00 | 40 | 1018.8 |
| 20260901140421 | 22 | 255 | 3.2 | 12.9 | 0.00 | 0.00 | 0.00 | 41 | 1019.0 |
| 20260901135353 | 22 | 275 | 4.8 | 14.5 | 0.00 | 0.00 | 0.00 | 41 | 1018.9 |
| 20260901133241 | 22 | 253 | 6.4 | 17.7 | 0.00 | 0.00 | 0.00 | 40 | 1019.1 |
| 20260901132230 | 22 | 227 | 6.4 | 16.1 | 0.00 | 0.00 | 0.00 | 40 | 1019.2 |
| 20260901130109 | 22 | 271 | 4.8 | 19.3 | 0.00 | 0.00 | 0.00 | 39 | 1019.3 |
| 20260901125116 | 22 | 277 | 3.2 | 14.5 | 0.00 | 0.00 | 0.00 | 38 | 1019.5 |
| 20260901124044 | 22 | 269 | 4.8 | 16.1 | 0.00 | 0.00 | 0.00 | 39 | 1019.4 |
| 20260901123105 | 22 | 240 | 4.8 | 16.1 | 0.00 | 0.00 | 0.00 | 38 | 1019.4 |
| 20260901122123 | 22 | 255 | 4.8 | 17.7 | 0.00 | 0.00 | 0.00 | 38 | 1019.5 |
| 20260901121059 | 22 | 264 | 6.4 | 17.7 | 0.00 | 0.00 | 0.00 | 37 | 1019.6 |
| 20260901120029 | 21 | 253 | 1.6 | 11.3 | 0.00 | 0.00 | 0.00 | 36 | 1019.7 |
| 20260901115039 | 21 | 264 | 4.8 | 14.5 | 0.00 | 0.00 | 0.00 | 35 | 1019.6 |
| 20260901114034 | 21 | 230 | 6.4 | 14.5 | 0.00 | 0.00 | 0.00 | 34 | 1019.6 |
| 20260901113030 | 21 | 207 | 3.2 | 14.5 | 0.00 | 0.00 | 0.00 | 32 | 1019.5 |
| 20260901110918 | 20 | 253 | 6.4 | 17.7 | 0.00 | 0.00 | 0.00 | 30 | 1019.7 |
| 20260901105940 | 21 | 289 | 4.8 | 14.5 | 0.00 | 0.00 | 0.00 | 32 | 1019.7 |
| 20260901104933 | 21 | 275 | 3.2 | 14.5 | 0.00 | 0.00 | 0.00 | 27 | 1019.8 |
| 20260901103913 | 20 | 275 | 3.2 | 14.5 | 0.00 | 0.00 | 0.00 | 28 | 1019.9 |
| 20260901102922 | 20 | 290 | 3.2 | 12.9 | 0.00 | 0.00 | 0.00 | 22 | 1019.8 |
| 20260901101944 | 20 | 244 | 1.6 | 3.2 | 0.00 | 0.00 | 0.00 | 11 | 1019.9 |
| 20260901100944 | 20 | 257 | 1.6 | 12.9 | 0.00 | 0.00 | 0.00 | 11 | 1020.0 |
| 20260901095944 | 20 | 325 | 4.8 | 12.9 | 0.00 | 0.00 | 0.00 | 11 | 1020.1 |
| 20260901093758 | 19 | 304 | 4.8 | 14.5 | 0.00 | 0.00 | 0.00 | 1 | 1020.2 |
| 20260901091637 | 19 | 278 | 1.6 | 9.7 | 0.00 | 0.00 | 0.00 | 1 | 1020.2 |
| 20260901090625 | 19 | 304 | 0.0 | 0.0 | 0.00 | 0.00 | 0.00 | 1 | 1020.0 |
| 20260901085640 | 19 | 311 | 0.0 | 0.0 | 0.00 | 0.00 | 0.00 | 1 | 1020.1 |
| 20260901084656 | 18 | 306 | 0.0 | 0.0 | 0.00 | 0.00 | 0.00 | 1 | 1020.0 |
| 20260901083656 | 18 | 311 | 0.0 | 6.4 | 0.00 | 0.00 | 0.00 | 1 | 1020.1 |
| 20260901082645 | 17 | 309 | 0.0 | 0.0 | 0.00 | 0.00 | 0.00 | 1 | 1020.0 |
| 20260901081628 | 17 | 260 | 0.0 | 9.7 | 0.00 | 0.00 | 0.00 | 1 | 1019.9 |
| 20260901080609 | 17 | 275 | 3.2 | 11.3 | 0.00 | 0.00 | 0.00 | 1 | 1019.9 |